Nearby METAR Reports

 

KMTN - Baltimore/Martin, Maryland, USA
Distance from station: SSE 8mi, 13km
Updated: Thu, 30-Oct-2014 10:45am EDT
Partly cloudy
Partly cloudy
 Wind from W
Wind: W 14 mph , 22 km/h
Temperature: 55°F , 13°C
Dew Point: 45°F , 7°C
Humidity: 67%
Barometer: 30.07 inHg , 1018.3 hPa
Clouds: Partly cloudy
Visibility: 10 miles , 16 km
Cloud details: Partly cloudy 6000 ft
2014/10/30 14:45 KMTN 301445Z 28012KT 10SM SCT060 13/07 A3007
KDMH - Baltimore/Dwntwn, Maryland, USA
Distance from station: SW 12mi, 19km
Updated: Thu, 30-Oct-2014 10:54am EDT

 
Temperature: 54°F , 12°C
Dew Point: 37°F , 3°C
Humidity: 54%
Barometer: 30.06 inHg , 1017.9 hPa
2014/10/30 14:54 KDMH 301454Z AUTO 12/03 A3006 RMK AO1 SLP179 T01220028 50010
 
KBWI - Balto/Wash Intl, Maryland, USA
Distance from station: SSW 20mi, 33km
Updated: Thu, 30-Oct-2014 10:54am EDT
Partly cloudy
Partly cloudy
 Wind from NNW
Wind: NNW 10 mph , 17 km/h, Gust: 18 mph , 30 km/h
Temperature: 55°F , 13°C
Dew Point: 39°F , 4°C
Humidity: 55%
Barometer: 30.06 inHg , 1017.9 hPa
Clouds: Partly cloudy
Visibility: 10 miles , 16 km
Cloud details: Few Clouds 5000 ft
Partly cloudy 25000 ft
2014/10/30 14:54 KBWI 301454Z 33009G16KT 10SM FEW050 SCT250 13/04 A3006 RMK AO2 SLP179 T01280044 51011
KDMW - Carroll Cnty, Maryland, USA
Distance from station: WNW 30mi, 48km
Updated: Thu, 30-Oct-2014 11:30am EDT
Partly cloudy
Partly cloudy
 Wind from NNW
Wind: NNW 7 mph , 11 km/h
Temperature: 52°F , 11°C
Dew Point: 39°F , 4°C
Humidity: 62%
Barometer: 30.06 inHg , 1017.9 hPa
Clouds: Partly cloudy
Visibility: 10 miles , 16 km
Cloud details: Partly cloudy 3000 ft
2014/10/30 15:30 KDMW 301530Z AUTO 34006KT 10SM SCT030 11/04 A3006 RMK AO2
 
KNAK - Annapolis/Naval, Maryland, USA
Distance from station: S 30mi, 48km
Updated: Thu, 30-Oct-2014 10:54am EDT
Clear
Clear
 Wind from NW
Wind: NW 13 mph , 20 km/h
Temperature: 55°F , 13°C
Dew Point: 41°F , 5°C
Humidity: 59%
Barometer: 30.06 inHg , 1017.9 hPa
Clouds: Clear
Visibility: 10 miles , 16 km
2014/10/30 14:54 KNAK 301454Z AUTO 32011KT 10SM CLR 13/05 A3006 RMK AO2 SLP181 T01280050 50009
KW29 - Stevensville, Maryland, USA
Distance from station: SSE 31mi, 50km
Updated: Thu, 30-Oct-2014 11:33am EDT

 Wind from NNW
Wind: NNW 8 mph , 13 km/h
Temperature: 54°F , 12°C
Dew Point: 41°F , 5°C
Humidity: 63%
Barometer: 30.06 inHg , 1017.9 hPa
Visibility: 10 miles , 16 km
2014/10/30 15:33 KW29 301533Z AUTO 33007KT 10SM 12/05 A3006 RMK AO1
 
KCGS - College Park, Maryland, USA
Distance from station: SW 38mi, 61km
Updated: Thu, 30-Oct-2014 11:30am EDT
Clear
Clear
 Wind from NW
Wind: NW 6 mph , 9 km/h
Temperature: 55°F , 13°C
Dew Point: 37°F , 3°C
Humidity: 51%
Barometer: 30.07 inHg , 1018.3 hPa
Clouds: Clear
Visibility: 10 miles , 16 km
2014/10/30 15:30 KCGS 301530Z AUTO 32005KT 10SM CLR 13/03 A3007 RMK AO1
KGAI - Gaithersburg, Maryland, USA
Distance from station: WSW 40mi, 65km
Updated: Thu, 30-Oct-2014 11:35am EDT
Clear
Clear
 Wind from WNW
Wind: WNW 10 mph , 17 km/h
Temperature: 54°F , 12°C
Dew Point: 39°F , 4°C
Humidity: 58%
Barometer: 30.10 inHg , 1019.3 hPa
Clouds: Clear
Visibility: 10 miles , 16 km
2014/10/30 15:35 KGAI 301535Z 30009KT 10SM CLR 12/04 A3010 RMK AO1
 
KTHV - York, Pennsylvania, USA
Distance from station: NNW 40mi, 65km
Updated: Thu, 30-Oct-2014 10:53am EDT
Clear
Clear
 Wind from WNW
Wind: WNW 9 mph , 15 km/h
Temperature: 54°F , 12°C
Dew Point: 41°F , 5°C
Humidity: 63%
Barometer: 30.06 inHg , 1017.9 hPa
Clouds: Clear
Visibility: 10 miles , 16 km
2014/10/30 14:53 KTHV 301453Z AUTO 30008KT 10SM CLR 12/05 A3006 RMK AO2 SLP183 T01170050 51007
KFDK - Frederick, Maryland, USA
Distance from station: W 47mi, 75km
Updated: Thu, 30-Oct-2014 11:45am EDT
Mostly cloudy
Mostly cloudy
 Wind from NNW
Wind: NNW 6 mph , 9 km/h
Temperature: 61°F , 16°C
Dew Point: 37°F , 3°C
Humidity: 42%
Barometer: 30.10 inHg , 1019.3 hPa
Clouds: Mostly cloudy
Visibility: 10 miles , 16 km
Cloud details: Mostly cloudy 4100 ft
2014/10/30 15:45 KFDK 301545Z 33005KT 10SM BKN041 16/03 A3010
 
KESN - Easton/Newnam, Maryland, USA
Distance from station: SSE 48mi, 78km
Updated: Thu, 30-Oct-2014 10:50am EDT
Mostly cloudy
Mostly cloudy
 Wind from N
Wind: N 8 mph , 13 km/h
Temperature: 55°F , 13°C
Dew Point: 45°F , 7°C
Humidity: 67%
Barometer: 30.09 inHg , 1019 hPa
Clouds: Mostly cloudy
Visibility: 10 miles , 16 km
Cloud details: Mostly cloudy 7500 ft
2014/10/30 14:50 KESN 301450Z 36007KT 10SM BKN075 13/07 A3009
KDCA - Washington/Natl, Washington D.c., USA
Distance from station: SW 49mi, 79km
Updated: Thu, 30-Oct-2014 10:52am EDT
Partly cloudy
Partly cloudy
 Wind from NNW
Wind: NNW 14 mph , 22 km/h
Temperature: 57°F , 14°C
Dew Point: 37°F , 3°C
Humidity: 48%
Barometer: 30.08 inHg , 1018.6 hPa
Clouds: Partly cloudy
Visibility: 10 miles , 16 km
Cloud details: Few Clouds 4000 ft
Partly cloudy 8000 ft
2014/10/30 14:52 KDCA 301452Z 33012KT 10SM FEW040 SCT080 14/03 A3008 RMK AO2 SLP187 T01390033 51012
 
KLNS - Lancaster, Pennsylvania, USA
Distance from station: N 49mi, 79km
Updated: Thu, 30-Oct-2014 10:53am EDT
Clear
Clear
 Wind from NNW
Wind: NNW 8 mph , 13 km/h
Temperature: 54°F , 12°C
Dew Point: 39°F , 4°C
Humidity: 58%
Barometer: 30.05 inHg , 1017.6 hPa
Clouds: Clear
Visibility: 10 miles , 16 km
2014/10/30 14:53 KLNS 301453Z 34007KT 10SM CLR 12/04 A3005 RMK AO2 SLP175 T01170044 50007
KILG - Wilmington, Delaware, USA
Distance from station: ENE 50mi, 81km
Updated: Thu, 30-Oct-2014 10:51am EDT
Few Clouds
Few Clouds
 Wind from NNW
Wind: NNW 8 mph , 13 km/h
Temperature: 55°F , 13°C
Dew Point: 43°F , 6°C
Humidity: 63%
Barometer: 30.04 inHg , 1017.3 hPa
Clouds: Few Clouds
Visibility: 10 miles , 16 km
Cloud details: Few Clouds 6000 ft
2014/10/30 14:51 KILG 301451Z 34007KT 10SM FEW060 13/06 A3004 RMK AO2 SLP173 T01280061 51008